Weather observations for the past three days for
Broomfield / Jeffco
Metric (Imperial)
Date Time (mdt) Wind (kph) Vis. (km) Weather Sky Cond. Temperature (ºC) Relative Humidity Wind Chill (°C) Heat Index (°C) Pressure Precipitation (cm)
Air Dwpt 6 hour altimeter (cm) sea level (mb) 1 hr 3 hr 6 hr
Max. Min.
07 04:55 SW 7 16.09 Fair CLR 6 -5 46% 5 76.25 0.0
07 04:35 SW 13 16.09 Fair CLR 7 -6 39% 5 76.23 0.0
07 04:15 S 11 16.09 Fair CLR 6 -5 46% 4 76.25 0.0
07 03:55 Calm 16.09 Fair CLR 7 -6 39% 76.25 0.0
07 03:35 SW 6 16.09 Fair CLR 6 -6 42% 76.28 0.0
07 03:15 W 9 16.09 Fair CLR 6 -6 42% 4 76.25 0.0
07 02:55 W 9 16.09 Fair CLR 6 -6 42% 4 76.28 0.0
07 02:35 Calm 16.09 Fair CLR 6 -7 39% 76.28 0.0
07 02:15 SW 9 16.09 Fair CLR 6 -6 42% 4 76.28 0.0
07 01:55 W 15 16.09 Fair CLR 6 -7 39% 3 76.3 0.0
07 01:35 W 9 16.09 Fair CLR 3 -5 56% 1 76.33 0.0
07 01:15 SW 9 16.09 Fair CLR 3 -3 65% 1 76.33 0.0
07 00:55 SW 7 16.09 Fair CLR 3 -4 60% 1 76.35 0.0
07 00:35 SW 13 16.09 Fair CLR 3 -2 70% 0 76.35 0.0
07 00:15 S 13 16.09 Fair CLR 4 -2 65% 1 76.35 0.0
06 23:55 SW 13 16.09 Fair CLR 2 -1 81% -1 76.35 0.0
06 23:35 W 22 G 28 16.09 Fair CLR 1 0 93% -4 76.35 0.0
06 23:15 W 7 16.09 Fair CLR 0 -1 93% -2 76.38 0.0
06 22:55 W 6 16.09 Fair CLR 0 -1 93% 76.38 0.0
06 22:35 W 9 16.09 Fair CLR 0 -2 87% -3 76.38 0.0
06 22:15 W 9 16.09 Fair CLR 0 -1 93% -3 76.4 0.0
06 21:55 W 6 16.09 Fair CLR 1 -1 87% 76.4 0.0
06 21:35 S 6 16.09 Fair CLR 2 -1 81% 76.4 0.0
06 21:15 S 7 16.09 Fair CLR 2 -1 81% 0 76.4 0.0
06 20:55 S 9 16.09 Fair CLR 2 -1 81% -0 76.4 0.0
06 20:35 S 11 16.09 Fair CLR 2 -1 81% -1 76.38 0.0
06 20:15 S 15 16.09 Fair CLR 2 -1 81% -2 76.35 0.0
06 19:45 Vrbl 6 16.09 Fair CLR 3 -1 75% 76.35 0.0
06 18:45 Vrbl 6 16.09 Fair CLR 4 -2 65% 76.4 0.0
06 17:45 Vrbl 6 16.09 A Few Clouds FEW060 3 -2 70% 76.43 0.0
06 16:45 S 11 16.09 Mostly Cloudy SCT020 BKN040 3 -2 70% 0 76.45 0.0
06 15:45 S 13 16.09 Mostly Cloudy BKN022 2 -2 75% -1 76.5 0.0
06 14:48 Calm 16.09 Overcast OVC022 2 -3 70% 76.53 0.0
06 13:45 Calm 16.09 Mostly Cloudy BKN013 BKN015 2 -2 75% 76.56 0.0
06 12:45 Calm 9.66 Fog/Mist OVC010 OVC015 1 -1 87% 76.61 0.0
06 11:50 NE 9 2.41 Light Snow Fog/Mist OVC006 0 -2 87% -3 76.63 0.0
06 10:52 NE 22 1.61 Snow OVC004 0 -1 93% -5 76.58 0.0
06 09:50 N 22 1.61 Light Snow Fog/Mist OVC004 0 -1 93% -5 76.5 0.0
06 08:50 N 17 1.61 Snow OVC004 0 0 100% -4 76.48 0.0
06 07:50 N 19 1.21 Snow OVC004 0 0 100% -5 76.45 0.0
06 06:58 Calm 1.21 Snow OVC004 0 0 100% 76.4 0.0
06 06:15 N 6 2.01 Light Snow SCT004 OVC018 0 0 100% 76.38 0.0
06 05:55 N 6 6.44 Light Snow BKN006 BKN012 OVC020 0 0 100% 76.35 0.0
06 05:35 N 6 8.05 Light Snow OVC006 0 0 100% 76.35 0.0
06 05:15 N 6 8.05 Light Snow BKN003 OVC010 0 0 100% 76.35 0.0
06 04:55 N 6 11.27 Unknown Precip SCT003 OVC012 0 0 100% 76.33 0.0
06 04:35 Calm 8.05 Light Snow OVC003 0 0 100% 76.3 0.0
06 04:15 N 6 4.83 Light Snow BKN003 OVC020 0 0 100% 76.33 0.0
06 03:55 N 7 8.05 Light Snow BKN003 OVC028 0 0 100% -2 76.33 0.0
06 03:35 N 9 4.83 Light Snow OVC003 0 0 100% -3 76.3 0.0
06 03:15 N 6 2.41 Light Snow OVC003 0 0 100% 76.3 0.0
06 02:55 N 6 1.61 Snow OVC003 0 0 100% 76.3 0.0
06 02:35 N 7 1.61 Snow OVC003 0 0 100% -2 76.3 0.0
06 02:15 N 9 2.41 Light Snow OVC003 0 0 100% -3 76.3 0.0
06 01:55 N 11 2.41 Light Snow OVC003 0 0 100% -3 76.33 0.0
06 01:35 N 7 1.61 Snow OVC003 0 0 100% -2 76.3 0.0
06 01:15 N 7 1.21 Snow OVC003 0 0 100% -2 76.3 0.0
06 00:55 N 7 1.61 Snow OVC003 0 0 100% -2 76.3 0.0
06 00:35 N 9 2.01 Light Snow OVC003 0 0 100% -3 76.3 0.0
06 00:15 N 9 2.01 Light Snow OVC003 0 0 100% -3 76.28 0.0
05 23:55 N 7 2.41 Light Snow OVC003 0 0 100% -2 76.28 0.0
05 23:35 N 6 3.22 Light Snow OVC003 0 0 100% 76.28 0.0
05 23:15 N 7 2.01 Light Snow BKN003 OVC007 0 0 100% -2 76.28 0.0
05 22:35 N 7 1.61 Snow OVC003 0 0 100% -2 76.25 0.0
05 22:15 N 9 2.01 Snow OVC003 0 0 100% -3 76.25 0.0
05 21:55 N 11 2.01 Snow OVC003 0 0 100% -3 76.23 0.0
05 21:35 N 13 2.41 Light Snow OVC003 0 0 100% -4 76.23 0.0
05 21:15 N 11 2.01 Snow OVC003 0 0 100% -3 76.2 0.0
05 20:55 N 11 2.41 Light Snow BKN003 BKN007 OVC018 0 0 100% -3 76.17 0.0
05 20:35 N 13 2.01 Snow BKN003 OVC007 0 0 100% -4 76.17 0.0
05 20:15 N 13 2.41 Light Snow OVC003 0 0 100% -4 76.12 0.0
05 19:45 N 19 1.61 Light Snow OVC005 1 0 93% -3 76.12 0.0
05 18:48 N 24 1.21 Light Snow Fog/Mist OVC005 1 1 100% -4 76.07 0.0
05 17:52 N 24 0.80 Light Snow Fog OVC003 1 0 93% -4 76.07 0.0
05 16:45 N 28 0.80 Snow Fog OVC003 1 1 100% -5 76.02 0.0
05 15:45 N 26 1.21 Light Snow Fog/Mist OVC006 2 1 93% -3 75.97 0.0
05 14:45 N 13 6.44 Light Rain Fog/Mist OVC006 4 3 93% 1 76.02 0.0
05 13:48 NE 17 6.44 Light Rain OVC007 3 3 100% -1 76.05 0.0
05 12:48 NE 15 6.44 Light Rain OVC007 4 3 93% 1 76.07 0.0
05 11:47 N 11 4.83 Light Rain OVC004 3 2 93% 0 76.12 0.0
05 10:47 N 9 8.05 Fog/Mist OVC004 2 2 100% -0 76.15 0.0
05 09:48 N 13 3.22 Light Drizzle OVC006 2 2 100% -1 76.17 0.0
05 08:47 NW 9 9.66 Light Drizzle OVC008 2 2 100% -0 76.2 0.0
05 07:45 N 15 3.22 Light Snow OVC003 1 1 100% -3 76.2 0.0
05 06:45 N 20 3.22 Light Snow OVC003 1 1 100% -4 76.12 0.0
05 06:15 N 17 4.83 Light Snow BKN003 OVC018 1 1 100% -3 76.1 0.0
05 05:55 N 20 4.83 Light Rain BKN003 OVC016 1 1 100% -4 76.1 0.0
05 05:35 N 20 3.22 Light Rain OVC003 2 1 93% -2 76.1 0.0
05 05:15 N 24 4.02 Light Rain BKN005 BKN008 OVC018 2 2 100% -3 76.07 0.0
05 04:55 N 28 G 37 16.09 Light Rain SCT008 OVC016 3 2 93% -2 76.05 0.0
05 04:35 N 19 16.09 Light Rain SCT007 BKN010 OVC019 4 3 93% 0 76.02 0.0
05 04:15 N 28 G 35 16.09 Light Rain OVC008 4 3 93% -1 76 0.0
05 03:55 N 28 G 33 16.09 Unknown Precip OVC004 5 3 87% 1 75.97 0.0
05 03:35 N 24 16.09 Light Rain OVC004 5 4 93% 1 75.97 0.0
05 03:15 N 30 16.09 Overcast OVC004 5 5 100% 0 75.97 0.0
05 02:55 N 28 G 37 16.09 Overcast OVC004 6 5 93% 2 75.95 0.0
05 02:35 N 28 16.09 Light Drizzle OVC006 6 5 93% 2 75.95 0.0
05 02:15 N 26 16.09 Light Rain BKN006 OVC015 6 5 93% 2 75.97 0.0
05 01:55 N 19 16.09 Light Rain SCT008 BKN025 OVC032 8 7 93% 5 75.95 0.0
05 01:35 Calm 16.09 Overcast SCT033 OVC040 8 7 93% 75.97 0.0
05 01:15 Calm 16.09 Overcast OVC040 8 6 87% 75.95 0.0
05 00:55 S 6 16.09 Overcast OVC042 8 6 87% 75.95 0.0
05 00:35 Calm 16.09 Light Rain SCT040 BKN048 OVC065 8 6 87% 75.95 0.0
05 00:15 Calm 16.09 Overcast SCT050 OVC065 8 7 93% 75.95 0.0
04 23:35 S 7 16.09 Fair CLR 8 6 87% 7 75.95 0.0
04 23:15 S 11 16.09 Partly Cloudy SCT060 8 6 87% 6 75.95 0.0
04 22:55 S 6 16.09 Mostly Cloudy SCT048 SCT060 BKN100 8 6 87% 75.95 0.0
04 22:15 W 11 16.09 Light Rain BKN050 OVC070 8 6 87% 6 75.97 0.0
04 21:55 SW 11 16.09 Light Rain BKN050 OVC055 8 6 87% 6 75.97 0.0
04 21:35 W 17 16.09 Light Rain OVC050 9 7 87% 7 75.97 0.0
04 21:15 W 24 G 31 11.27 Light Rain BKN044 OVC050 9 7 87% 6 75.95 0.0
04 20:55 NW 20 16.09 Rain BKN047 OVC050 10 6 76% 8 75.92 0.0
04 20:35 NW 17 16.09 Overcast OVC060 10 6 76% 8 75.9 0.0
04 20:15 N 17 G 28 16.09 Light Rain OVC060 10 6 76% 8 75.87 0.0
04 19:45 N 26 G 41 16.09 Showers in Vicinity BKN050 OVC070 11 6 72% 75.87 0.0
04 18:50 N 15 16.09 Showers in Vicinity OVC070 14 2 44% 75.84 0.0
04 17:46 NW 19 16.09 Showers in Vicinity OVC090 16 1 36% 75.79 0.0
04 16:46 NW 19 16.09 Thunderstorm in Vicinity BKN060 OVC080 16 0 34% 75.79 0.0
04 15:46 N 43 G 52 16.09 Thunderstorm in Vicinity and Windy BKN120 17 1 34% 75.69 0.0
04 14:50 SE 11 16.09 Light Rain SCT048 OVC100 18 0 30% 75.72 0.0
04 13:55 SE 24 G 57 16.09 Light Rain SCT048 OVC100 15 2 42% 75.74 0.0
04 12:50 NW 28 G 41 16.09 Mostly Cloudy BKN120 22 -5 16% 75.74 0.0
04 11:45 NW 28 G 41 16.09 Mostly Cloudy BKN120 21 -4 18% 75.74 0.0
04 10:47 W 28 G 39 16.09 Partly Cloudy SCT120 21 -4 18% 75.77 0.0
04 09:47 W 24 G 41 16.09 Partly Cloudy SCT120 18 -4 22% 75.82 0.0
04 08:45 W 28 16.09 Partly Cloudy SCT120 18 -4 22% 75.84 0.0
04 07:50 W 6 16.09 Fair CLR 14 -5 27% 75.84 0.0
04 06:47 Calm 16.09 Fair CLR 12 -7 26% 75.79 0.0
04 06:15 Calm 16.09 Fair CLR 10 -6 32% 75.77 0.0
04 05:55 Calm 16.09 Fair CLR 10 -6 32% 75.77 0.0
04 05:35 W 6 16.09 Fair CLR 8 -6 37% 75.79 0.0
Date Time (mdt) Wind (kph) Vis. (km) Weather Sky Cond. Air Dwpt Max. Min. Relative Humidity Wind Chill (°C) Heat Index (°C) altimeter (cm) sea level (mb) 1 hr 3 hr 6 hr
6 hour
Temperature (ºC) Pressure Precipitation (cm)